sensor_id;sensor_type;location;lat;lon;timestamp;pressure;altitude;pressure_sealevel;temperature;humidity
55347;BME280;41218;55.700;38.270;2023-09-12T00:04:21;100270.63;;;7.80;67.69
55347;BME280;41218;55.700;38.270;2023-09-12T00:09:22;100278.41;;;7.78;67.68
55347;BME280;41218;55.700;38.270;2023-09-12T00:14:22;100282.50;;;7.72;67.78
55347;BME280;41218;55.700;38.270;2023-09-12T00:19:23;100275.94;;;7.64;67.65
55347;BME280;41218;55.700;38.270;2023-09-12T00:24:23;100276.00;;;7.55;67.79
55347;BME280;41218;55.700;38.270;2023-09-12T00:29:24;100287.34;;;7.54;67.61
55347;BME280;41218;55.700;38.270;2023-09-12T00:34:24;100288.59;;;7.44;67.77
55347;BME280;41218;55.700;38.270;2023-09-12T00:39:25;100287.16;;;7.38;67.56
55347;BME280;41218;55.700;38.270;2023-09-12T00:44:25;100280.91;;;7.29;67.81
55347;BME280;41218;55.700;38.270;2023-09-12T00:49:26;100284.78;;;7.28;67.90
55347;BME280;41218;55.700;38.270;2023-09-12T00:54:28;100279.38;;;7.19;67.71
55347;BME280;41218;55.700;38.270;2023-09-12T00:59:29;100293.44;;;7.17;67.87
55347;BME280;41218;55.700;38.270;2023-09-12T01:04:29;100289.28;;;7.11;67.62
55347;BME280;41218;55.700;38.270;2023-09-12T01:09:31;100288.53;;;7.02;67.75
55347;BME280;41218;55.700;38.270;2023-09-12T01:14:33;100294.38;;;7.00;67.63
55347;BME280;41218;55.700;38.270;2023-09-12T01:19:34;100303.63;;;6.96;67.60
55347;BME280;41218;55.700;38.270;2023-09-12T01:30:04;100303.53;;;6.84;67.68
55347;BME280;41218;55.700;38.270;2023-09-12T01:35:06;100305.63;;;6.78;67.46
55347;BME280;41218;55.700;38.270;2023-09-12T01:40:09;100312.47;;;6.72;67.52
55347;BME280;41218;55.700;38.270;2023-09-12T01:45:13;100297.81;;;6.59;67.62
55347;BME280;41218;55.700;38.270;2023-09-12T01:50:15;100306.06;;;6.59;67.52
55347;BME280;41218;55.700;38.270;2023-09-12T01:55:18;100303.94;;;6.56;67.66
55347;BME280;41218;55.700;38.270;2023-09-12T02:00:19;100308.81;;;6.50;67.73
55347;BME280;41218;55.700;38.270;2023-09-12T02:05:21;100307.38;;;6.44;67.52
55347;BME280;41218;55.700;38.270;2023-09-12T02:10:22;100311.28;;;6.43;67.74
55347;BME280;41218;55.700;38.270;2023-09-12T02:15:24;100324.38;;;6.37;67.74
55347;BME280;41218;55.700;38.270;2023-09-12T02:20:25;100330.50;;;6.34;67.86
55347;BME280;41218;55.700;38.270;2023-09-12T02:25:26;100335.03;;;6.30;67.71
55347;BME280;41218;55.700;38.270;2023-09-12T02:30:26;100331.69;;;6.25;67.86
55347;BME280;41218;55.700;38.270;2023-09-12T02:35:27;100338.28;;;6.24;67.94
55347;BME280;41218;55.700;38.270;2023-09-12T02:40:28;100345.56;;;6.19;68.10
55347;BME280;41218;55.700;38.270;2023-09-12T02:45:28;100346.72;;;6.18;67.90
55347;BME280;41218;55.700;38.270;2023-09-12T02:50:29;100336.38;;;6.07;67.89
55347;BME280;41218;55.700;38.270;2023-09-12T02:55:30;100344.75;;;6.10;67.54
55347;BME280;41218;55.700;38.270;2023-09-12T03:00:32;100340.25;;;6.06;68.36
55347;BME280;41218;55.700;38.270;2023-09-12T03:05:37;100348.00;;;6.04;68.27
55347;BME280;41218;55.700;38.270;2023-09-12T03:10:38;100343.66;;;6.03;68.27
55347;BME280;41218;55.700;38.270;2023-09-12T03:15:38;100352.22;;;6.01;67.93
55347;BME280;41218;55.700;38.270;2023-09-12T03:20:39;100350.75;;;5.95;68.28
55347;BME280;41218;55.700;38.270;2023-09-12T03:25:40;100343.63;;;5.85;67.73
55347;BME280;41218;55.700;38.270;2023-09-12T03:30:42;100353.63;;;5.90;67.77
55347;BME280;41218;55.700;38.270;2023-09-12T03:35:43;100348.50;;;5.88;68.44
55347;BME280;41218;55.700;38.270;2023-09-12T03:40:44;100342.97;;;5.79;68.26
55347;BME280;41218;55.700;38.270;2023-09-12T03:45:44;100353.16;;;5.88;68.04
55347;BME280;41218;55.700;38.270;2023-09-12T03:50:45;100353.50;;;5.86;68.19
55347;BME280;41218;55.700;38.270;2023-09-12T03:55:45;100346.22;;;5.81;68.18
55347;BME280;41218;55.700;38.270;2023-09-12T04:00:46;100363.16;;;5.83;68.53
55347;BME280;41218;55.700;38.270;2023-09-12T04:05:47;100349.78;;;5.82;68.38
55347;BME280;41218;55.700;38.270;2023-09-12T04:10:48;100352.69;;;5.77;68.48
55347;BME280;41218;55.700;38.270;2023-09-12T04:15:48;100369.13;;;5.86;68.73
55347;BME280;41218;55.700;38.270;2023-09-12T04:20:48;100370.75;;;5.87;68.85
55347;BME280;41218;55.700;38.270;2023-09-12T04:25:49;100376.72;;;5.89;68.89
55347;BME280;41218;55.700;38.270;2023-09-12T04:30:50;100386.72;;;5.93;69.34
55347;BME280;41218;55.700;38.270;2023-09-12T04:35:50;100392.91;;;5.99;69.62
55347;BME280;41218;55.700;38.270;2023-09-12T04:40:57;100385.78;;;6.07;70.72
55347;BME280;41218;55.700;38.270;2023-09-12T04:46:03;100389.66;;;6.06;69.90
55347;BME280;41218;55.700;38.270;2023-09-12T04:51:04;100390.63;;;6.18;70.50
55347;BME280;41218;55.700;38.270;2023-09-12T04:56:04;100389.63;;;6.32;71.03
55347;BME280;41218;55.700;38.270;2023-09-12T05:01:06;100390.25;;;6.46;71.37
55347;BME280;41218;55.700;38.270;2023-09-12T05:06:07;100388.09;;;6.60;71.52
55347;BME280;41218;55.700;38.270;2023-09-12T05:11:08;100405.19;;;6.75;71.98
55347;BME280;41218;55.700;38.270;2023-09-12T05:16:09;100400.50;;;6.84;72.40
55347;BME280;41218;55.700;38.270;2023-09-12T05:21:09;100409.97;;;7.04;72.37
55347;BME280;41218;55.700;38.270;2023-09-12T05:26:10;100411.34;;;7.19;72.79
55347;BME280;41218;55.700;38.270;2023-09-12T05:31:10;100408.50;;;7.36;73.06
55347;BME280;41218;55.700;38.270;2023-09-12T05:36:11;100404.19;;;7.56;73.42
55347;BME280;41218;55.700;38.270;2023-09-12T05:41:11;100408.34;;;7.83;73.51
55347;BME280;41218;55.700;38.270;2023-09-12T05:46:12;100413.06;;;8.04;73.71
55347;BME280;41218;55.700;38.270;2023-09-12T05:51:13;100414.84;;;8.21;74.12
55347;BME280;41218;55.700;38.270;2023-09-12T05:56:13;100409.13;;;8.47;74.01
55347;BME280;41218;55.700;38.270;2023-09-12T06:01:14;100425.38;;;8.73;74.31
55347;BME280;41218;55.700;38.270;2023-09-12T06:06:15;100419.13;;;8.97;74.60
55347;BME280;41218;55.700;38.270;2023-09-12T06:11:16;100415.59;;;9.21;74.56
55347;BME280;41218;55.700;38.270;2023-09-12T06:16:16;100419.13;;;9.47;74.80
55347;BME280;41218;55.700;38.270;2023-09-12T06:21:17;100419.59;;;9.73;75.17
55347;BME280;41218;55.700;38.270;2023-09-12T06:26:17;100410.06;;;9.99;75.37
55347;BME280;41218;55.700;38.270;2023-09-12T06:31:18;100407.13;;;10.20;75.24
55347;BME280;41218;55.700;38.270;2023-09-12T06:36:18;100413.72;;;10.43;74.96
55347;BME280;41218;55.700;38.270;2023-09-12T06:41:19;100423.50;;;10.69;75.13
55347;BME280;41218;55.700;38.270;2023-09-12T06:46:20;100427.66;;;10.91;75.06
55347;BME280;41218;55.700;38.270;2023-09-12T06:51:24;100433.38;;;11.14;75.49
55347;BME280;41218;55.700;38.270;2023-09-12T06:56:25;100425.59;;;11.36;75.01
55347;BME280;41218;55.700;38.270;2023-09-12T07:01:27;100432.88;;;11.60;74.60
55347;BME280;41218;55.700;38.270;2023-09-12T07:06:28;100433.22;;;11.74;74.62
55347;BME280;41218;55.700;38.270;2023-09-12T07:11:28;100422.81;;;11.87;74.33
55347;BME280;41218;55.700;38.270;2023-09-12T07:16:31;100438.91;;;12.17;74.40
55347;BME280;41218;55.700;38.270;2023-09-12T07:21:32;100430.66;;;12.40;73.83
55347;BME280;41218;55.700;38.270;2023-09-12T07:26:33;100423.81;;;12.53;73.70
55347;BME280;41218;55.700;38.270;2023-09-12T07:31:34;100431.97;;;12.89;73.21
55347;BME280;41218;55.700;38.270;2023-09-12T07:36:34;100433.22;;;13.14;73.15
55347;BME280;41218;55.700;38.270;2023-09-12T07:41:35;100432.38;;;13.33;72.96
55347;BME280;41218;55.700;38.270;2023-09-12T07:46:35;100430.78;;;13.59;72.21
55347;BME280;41218;55.700;38.270;2023-09-12T07:51:36;100434.63;;;13.77;71.71
55347;BME280;41218;55.700;38.270;2023-09-12T07:56:36;100424.94;;;13.94;71.30
55347;BME280;41218;55.700;38.270;2023-09-12T08:01:37;100424.84;;;14.17;70.61
55347;BME280;41218;55.700;38.270;2023-09-12T08:06:37;100429.06;;;14.38;70.51
55347;BME280;41218;55.700;38.270;2023-09-12T08:11:38;100414.94;;;14.54;69.99
55347;BME280;41218;55.700;38.270;2023-09-12T08:16:39;100424.34;;;14.76;69.46
55347;BME280;41218;55.700;38.270;2023-09-12T08:21:39;100421.31;;;14.92;69.12
55347;BME280;41218;55.700;38.270;2023-09-12T08:26:39;100418.66;;;15.02;68.81
55347;BME280;41218;55.700;38.270;2023-09-12T08:31:40;100413.56;;;15.15;68.68
55347;BME280;41218;55.700;38.270;2023-09-12T08:36:41;100420.13;;;15.37;68.59
55347;BME280;41218;55.700;38.270;2023-09-12T08:41:42;100417.38;;;15.45;68.08
55347;BME280;41218;55.700;38.270;2023-09-12T08:46:44;100413.09;;;15.58;67.89
55347;BME280;41218;55.700;38.270;2023-09-12T08:51:45;100409.63;;;15.72;67.39
55347;BME280;41218;55.700;38.270;2023-09-12T08:56:45;100406.88;;;15.79;67.12
55347;BME280;41218;55.700;38.270;2023-09-12T09:01:46;100404.50;;;15.81;66.72
55347;BME280;41218;55.700;38.270;2023-09-12T09:06:47;100394.91;;;15.75;66.44
55347;BME280;41218;55.700;38.270;2023-09-12T09:11:51;100405.69;;;15.76;66.39
55347;BME280;41218;55.700;38.270;2023-09-12T09:16:52;100400.91;;;15.77;66.38
55347;BME280;41218;55.700;38.270;2023-09-12T09:22:04;100392.16;;;15.78;65.53
55347;BME280;41218;55.700;38.270;2023-09-12T09:27:05;100395.75;;;15.82;65.85
55347;BME280;41218;55.700;38.270;2023-09-12T09:32:17;100406.56;;;15.88;64.89
55347;BME280;41218;55.700;38.270;2023-09-12T09:37:18;100401.78;;;15.92;65.18
55347;BME280;41218;55.700;38.270;2023-09-12T09:42:19;100401.44;;;16.04;64.63
55347;BME280;41218;55.700;38.270;2023-09-12T09:47:20;100395.09;;;16.11;64.08
55347;BME280;41218;55.700;38.270;2023-09-12T09:52:27;100394.72;;;16.19;63.19
55347;BME280;41218;55.700;38.270;2023-09-12T09:57:28;100399.13;;;16.28;63.60
55347;BME280;41218;55.700;38.270;2023-09-12T10:02:28;100401.56;;;16.33;63.06
55347;BME280;41218;55.700;38.270;2023-09-12T10:07:32;100403.97;;;16.41;62.99
55347;BME280;41218;55.700;38.270;2023-09-12T10:12:35;100388.47;;;16.55;62.90
55347;BME280;41218;55.700;38.270;2023-09-12T10:17:39;100389.69;;;16.65;61.98
55347;BME280;41218;55.700;38.270;2023-09-12T10:22:58;100391.28;;;16.69;61.82
55347;BME280;41218;55.700;38.270;2023-09-12T10:28:01;100394.91;;;16.77;61.83
55347;BME280;41218;55.700;38.270;2023-09-12T10:33:02;100394.16;;;16.87;61.32
55347;BME280;41218;55.700;38.270;2023-09-12T10:38:05;100382.97;;;16.91;61.12
55347;BME280;41218;55.700;38.270;2023-09-12T10:43:08;100389.34;;;17.02;60.72
55347;BME280;41218;55.700;38.270;2023-09-12T10:48:10;100386.97;;;17.11;60.50
55347;BME280;41218;55.700;38.270;2023-09-12T10:53:14;100371.41;;;17.10;60.03
55347;BME280;41218;55.700;38.270;2023-09-12T10:58:14;100395.34;;;17.22;59.53
55347;BME280;41218;55.700;38.270;2023-09-12T11:03:35;100392.13;;;17.31;59.88
55347;BME280;41218;55.700;38.270;2023-09-12T11:08:36;100383.78;;;17.20;59.50
55347;BME280;41218;55.700;38.270;2023-09-12T11:13:38;100391.75;;;17.18;59.50
55347;BME280;41218;55.700;38.270;2023-09-12T11:24:20;100374.97;;;17.39;58.75
55347;BME280;41218;55.700;38.270;2023-09-12T11:29:21;100384.53;;;17.56;58.11
55347;BME280;41218;55.700;38.270;2023-09-12T11:34:26;100369.72;;;17.67;57.53
55347;BME280;41218;55.700;38.270;2023-09-12T11:39:35;100375.69;;;17.83;57.33
55347;BME280;41218;55.700;38.270;2023-09-12T11:44:36;100363.28;;;17.88;57.33
55347;BME280;41218;55.700;38.270;2023-09-12T11:49:37;100364.47;;;17.97;57.42
55347;BME280;41218;55.700;38.270;2023-09-12T11:54:39;100361.69;;;17.90;56.70
55347;BME280;41218;55.700;38.270;2023-09-12T11:59:43;100353.72;;;17.89;56.76
55347;BME280;41218;55.700;38.270;2023-09-12T12:04:52;100355.28;;;17.93;56.73
55347;BME280;41218;55.700;38.270;2023-09-12T12:09:55;100357.28;;;17.96;55.88
55347;BME280;41218;55.700;38.270;2023-09-12T12:14:55;100359.25;;;18.03;55.65
55347;BME280;41218;55.700;38.270;2023-09-12T12:19:56;100358.41;;;18.17;55.71
55347;BME280;41218;55.700;38.270;2023-09-12T12:25:05;100350.81;;;18.14;54.37
55347;BME280;41218;55.700;38.270;2023-09-12T12:30:11;100353.19;;;18.15;54.69
55347;BME280;41218;55.700;38.270;2023-09-12T12:35:19;100354.78;;;18.16;54.22
55347;BME280;41218;55.700;38.270;2023-09-12T12:40:21;100364.34;;;18.22;54.53
55347;BME280;41218;55.700;38.270;2023-09-12T12:45:22;100354.69;;;18.34;54.62
55347;BME280;41218;55.700;38.270;2023-09-12T12:50:23;100356.69;;;18.37;54.31
55347;BME280;41218;55.700;38.270;2023-09-12T12:55:26;100355.94;;;18.26;53.50
55347;BME280;41218;55.700;38.270;2023-09-12T13:00:26;100357.53;;;18.27;53.99
55347;BME280;41218;55.700;38.270;2023-09-12T13:05:27;100352.69;;;18.35;54.08
55347;BME280;41218;55.700;38.270;2023-09-12T13:10:28;100345.16;;;18.25;53.58
55347;BME280;41218;55.700;38.270;2023-09-12T13:15:30;100333.63;;;18.15;53.99
55347;BME280;41218;55.700;38.270;2023-09-12T13:20:31;100352.28;;;18.33;54.24
55347;BME280;41218;55.700;38.270;2023-09-12T13:25:31;100332.84;;;18.11;53.98
55347;BME280;41218;55.700;38.270;2023-09-12T13:30:32;100347.53;;;18.26;54.48
55347;BME280;41218;55.700;38.270;2023-09-12T13:35:32;100355.22;;;18.15;54.20
55347;BME280;41218;55.700;38.270;2023-09-12T13:40:33;100356.78;;;18.19;54.76
55347;BME280;41218;55.700;38.270;2023-09-12T13:45:34;100361.22;;;18.06;54.21
55347;BME280;41218;55.700;38.270;2023-09-12T13:50:35;100354.50;;;17.96;54.19
55347;BME280;41218;55.700;38.270;2023-09-12T13:55:35;100358.03;;;18.08;54.42
55347;BME280;41218;55.700;38.270;2023-09-12T14:00:36;100360.50;;;17.95;54.27
55347;BME280;41218;55.700;38.270;2023-09-12T14:05:37;100351.72;;;17.86;54.22
55347;BME280;41218;55.700;38.270;2023-09-12T14:10:37;100365.66;;;18.00;54.65
55347;BME280;41218;55.700;38.270;2023-09-12T14:15:38;100359.72;;;17.87;54.25
55347;BME280;41218;55.700;38.270;2023-09-12T14:20:38;100350.91;;;17.89;54.74
55347;BME280;41218;55.700;38.270;2023-09-12T14:25:39;100350.56;;;17.72;55.78
55347;BME280;41218;55.700;38.270;2023-09-12T14:30:39;100358.50;;;17.74;56.30
55347;BME280;41218;55.700;38.270;2023-09-12T14:35:44;100363.75;;;17.57;57.12
55347;BME280;41218;55.700;38.270;2023-09-12T14:40:45;100366.94;;;17.59;57.21
55347;BME280;41218;55.700;38.270;2023-09-12T14:45:45;100351.41;;;17.40;57.87
55347;BME280;41218;55.700;38.270;2023-09-12T14:50:46;100369.78;;;17.45;58.23
55347;BME280;41218;55.700;38.270;2023-09-12T14:55:49;100368.59;;;17.28;59.16
55347;BME280;41218;55.700;38.270;2023-09-12T15:00:49;100370.59;;;17.28;58.94
55347;BME280;41218;55.700;38.270;2023-09-12T15:05:50;100368.22;;;17.12;59.35
55347;BME280;41218;55.700;38.270;2023-09-12T15:10:50;100364.25;;;17.09;59.53
55347;BME280;41218;55.700;38.270;2023-09-12T15:15:51;100362.22;;;16.92;59.92
55347;BME280;41218;55.700;38.270;2023-09-12T15:20:51;100365.81;;;16.89;59.98
55347;BME280;41218;55.700;38.270;2023-09-12T15:25:52;100364.97;;;16.63;60.50
55347;BME280;41218;55.700;38.270;2023-09-12T15:30:53;100370.16;;;16.68;60.72
55347;BME280;41218;55.700;38.270;2023-09-12T15:35:53;100374.09;;;16.49;60.97
55347;BME280;41218;55.700;38.270;2023-09-12T15:40:54;100389.22;;;16.37;61.31
55347;BME280;41218;55.700;38.270;2023-09-12T15:45:54;100403.94;;;16.38;61.23
55347;BME280;41218;55.700;38.270;2023-09-12T15:50:55;100401.50;;;16.18;61.50
55347;BME280;41218;55.700;38.270;2023-09-12T15:55:56;100407.06;;;16.15;61.63
55347;BME280;41218;55.700;38.270;2023-09-12T16:00:56;100401.78;;;15.95;61.92
55347;BME280;41218;55.700;38.270;2023-09-12T16:05:58;100408.50;;;15.80;62.29
55347;BME280;41218;55.700;38.270;2023-09-12T16:10:58;100419.22;;;15.78;62.04
55347;BME280;41218;55.700;38.270;2023-09-12T16:15:59;100419.47;;;15.58;62.41
55347;BME280;41218;55.700;38.270;2023-09-12T16:20:59;100410.22;;;15.43;62.75
55347;BME280;41218;55.700;38.270;2023-09-12T16:26:00;100398.13;;;15.21;62.74
55347;BME280;41218;55.700;38.270;2023-09-12T16:31:01;100414.41;;;15.19;63.01
55347;BME280;41218;55.700;38.270;2023-09-12T16:36:01;100407.09;;;15.04;63.03
55347;BME280;41218;55.700;38.270;2023-09-12T16:41:02;100425.34;;;14.98;63.43
55347;BME280;41218;55.700;38.270;2023-09-12T16:46:02;100418.44;;;14.81;63.32
55347;BME280;41218;55.700;38.270;2023-09-12T16:51:03;100418.75;;;14.72;63.55
55347;BME280;41218;55.700;38.270;2023-09-12T16:56:04;100419.84;;;14.64;63.38
55347;BME280;41218;55.700;38.270;2023-09-12T17:01:04;100420.84;;;14.49;63.42
55347;BME280;41218;55.700;38.270;2023-09-12T17:06:05;100433.84;;;14.41;63.58
55347;BME280;41218;55.700;38.270;2023-09-12T17:11:05;100426.56;;;14.29;63.76
55347;BME280;41218;55.700;38.270;2023-09-12T17:16:06;100428.38;;;14.14;63.65
55347;BME280;41218;55.700;38.270;2023-09-12T17:21:06;100409.91;;;13.99;63.89
55347;BME280;41218;55.700;38.270;2023-09-12T17:26:07;100422.56;;;13.96;63.78
55347;BME280;41218;55.700;38.270;2023-09-12T17:31:07;100423.66;;;13.88;64.01
55347;BME280;41218;55.700;38.270;2023-09-12T17:36:08;100428.28;;;13.77;64.08
55347;BME280;41218;55.700;38.270;2023-09-12T17:41:09;100420.16;;;13.65;64.14
55347;BME280;41218;55.700;38.270;2023-09-12T17:46:09;100426.75;;;13.56;64.00
55347;BME280;41218;55.700;38.270;2023-09-12T17:51:10;100428.22;;;13.47;64.11
55347;BME280;41218;55.700;38.270;2023-09-12T17:56:10;100430.78;;;13.32;64.29
55347;BME280;41218;55.700;38.270;2023-09-12T18:01:11;100420.69;;;13.24;64.28
55347;BME280;41218;55.700;38.270;2023-09-12T18:06:12;100429.69;;;13.17;64.38
55347;BME280;41218;55.700;38.270;2023-09-12T18:11:13;100417.50;;;12.99;64.53
55347;BME280;41218;55.700;38.270;2023-09-12T18:16:14;100418.19;;;12.92;64.38
55347;BME280;41218;55.700;38.270;2023-09-12T18:21:17;100429.97;;;12.86;64.49
55347;BME280;41218;55.700;38.270;2023-09-12T18:26:18;100436.59;;;12.81;64.47
55347;BME280;41218;55.700;38.270;2023-09-12T18:31:18;100438.03;;;12.71;64.74
55347;BME280;41218;55.700;38.270;2023-09-12T18:36:19;100436.25;;;12.63;64.53
55347;BME280;41218;55.700;38.270;2023-09-12T18:41:20;100434.50;;;12.55;64.67
55347;BME280;41218;55.700;38.270;2023-09-12T18:46:21;100431.53;;;12.44;64.79
55347;BME280;41218;55.700;38.270;2023-09-12T18:51:21;100432.13;;;12.34;64.90
55347;BME280;41218;55.700;38.270;2023-09-12T18:56:22;100423.16;;;12.21;64.86
55347;BME280;41218;55.700;38.270;2023-09-12T19:01:24;100448.09;;;12.21;64.87
55347;BME280;41218;55.700;38.270;2023-09-12T19:06:25;100437.44;;;12.03;65.10
55347;BME280;41218;55.700;38.270;2023-09-12T19:11:26;100451.72;;;12.06;65.03
55347;BME280;41218;55.700;38.270;2023-09-12T19:16:26;100443.63;;;11.97;65.03
55347;BME280;41218;55.700;38.270;2023-09-12T19:21:27;100438.63;;;11.87;64.98
55347;BME280;41218;55.700;38.270;2023-09-12T19:26:27;100445.63;;;11.80;64.95
55347;BME280;41218;55.700;38.270;2023-09-12T19:31:28;100450.63;;;11.75;64.98
55347;BME280;41218;55.700;38.270;2023-09-12T19:36:29;100439.75;;;11.66;65.11
55347;BME280;41218;55.700;38.270;2023-09-12T19:41:30;100443.53;;;11.58;65.09
55347;BME280;41218;55.700;38.270;2023-09-12T19:46:31;100455.31;;;11.55;65.23
55347;BME280;41218;55.700;38.270;2023-09-12T19:51:31;100448.00;;;11.47;65.42
55347;BME280;41218;55.700;38.270;2023-09-12T19:56:32;100450.59;;;11.39;65.47
55347;BME280;41218;55.700;38.270;2023-09-12T20:01:33;100451.31;;;11.36;65.26
55347;BME280;41218;55.700;38.270;2023-09-12T20:06:33;100447.91;;;11.27;65.31
55347;BME280;41218;55.700;38.270;2023-09-12T20:11:34;100460.06;;;11.22;65.22
55347;BME280;41218;55.700;38.270;2023-09-12T20:16:34;100457.91;;;11.16;65.48
55347;BME280;41218;55.700;38.270;2023-09-12T20:21:35;100459.34;;;11.10;65.29
55347;BME280;41218;55.700;38.270;2023-09-12T20:26:36;100456.75;;;11.01;65.64
55347;BME280;41218;55.700;38.270;2023-09-12T20:31:38;100451.72;;;10.91;65.49
55347;BME280;41218;55.700;38.270;2023-09-12T20:36:38;100461.63;;;10.92;65.62
55347;BME280;41218;55.700;38.270;2023-09-12T20:41:39;100453.50;;;10.83;65.64
55347;BME280;41218;55.700;38.270;2023-09-12T20:46:39;100452.06;;;10.73;65.68
55347;BME280;41218;55.700;38.270;2023-09-12T20:51:44;100467.03;;;10.72;65.84
55347;BME280;41218;55.700;38.270;2023-09-12T20:56:49;100474.09;;;10.70;65.77
55347;BME280;41218;55.700;38.270;2023-09-12T21:01:50;100469.16;;;10.63;66.06
55347;BME280;41218;55.700;38.270;2023-09-12T21:06:50;100471.25;;;10.54;65.70
55347;BME280;41218;55.700;38.270;2023-09-12T21:11:51;100474.75;;;10.51;65.70
55347;BME280;41218;55.700;38.270;2023-09-12T21:16:51;100477.06;;;10.49;65.75
55347;BME280;41218;55.700;38.270;2023-09-12T21:21:52;100484.00;;;10.42;66.12
55347;BME280;41218;55.700;38.270;2023-09-12T21:26:53;100477.44;;;10.35;65.89
55347;BME280;41218;55.700;38.270;2023-09-12T21:31:54;100478.72;;;10.25;66.17
55347;BME280;41218;55.700;38.270;2023-09-12T21:36:55;100491.25;;;10.35;65.81
55347;BME280;41218;55.700;38.270;2023-09-12T21:41:55;100481.63;;;10.16;65.78
55347;BME280;41218;55.700;38.270;2023-09-12T21:46:56;100490.25;;;10.15;65.94
55347;BME280;41218;55.700;38.270;2023-09-12T21:51:57;100484.41;;;10.04;66.29
55347;BME280;41218;55.700;38.270;2023-09-12T21:56:58;100500.53;;;10.02;66.03
55347;BME280;41218;55.700;38.270;2023-09-12T22:01:58;100496.03;;;9.97;66.28
55347;BME280;41218;55.700;38.270;2023-09-12T22:06:59;100492.34;;;9.93;66.07
55347;BME280;41218;55.700;38.270;2023-09-12T22:11:59;100494.91;;;9.86;66.38
55347;BME280;41218;55.700;38.270;2023-09-12T22:17:00;100499.16;;;9.83;66.20
55347;BME280;41218;55.700;38.270;2023-09-12T22:22:01;100514.13;;;9.82;66.35
55347;BME280;41218;55.700;38.270;2023-09-12T22:27:02;100506.53;;;9.79;66.30
55347;BME280;41218;55.700;38.270;2023-09-12T22:32:03;100487.22;;;9.67;66.33
55347;BME280;41218;55.700;38.270;2023-09-12T22:37:04;100499.06;;;9.68;66.75
55347;BME280;41218;55.700;38.270;2023-09-12T22:42:04;100497.09;;;9.68;66.51
55347;BME280;41218;55.700;38.270;2023-09-12T22:47:05;100507.22;;;9.64;66.47
55347;BME280;41218;55.700;38.270;2023-09-12T22:52:05;100506.75;;;9.62;66.68
55347;BME280;41218;55.700;38.270;2023-09-12T22:57:06;100506.50;;;9.55;66.69
55347;BME280;41218;55.700;38.270;2023-09-12T23:02:06;100506.06;;;9.53;66.60
55347;BME280;41218;55.700;38.270;2023-09-12T23:07:07;100497.69;;;9.49;66.79
55347;BME280;41218;55.700;38.270;2023-09-12T23:12:08;100501.13;;;9.46;66.83
55347;BME280;41218;55.700;38.270;2023-09-12T23:17:09;100502.16;;;9.41;66.82
55347;BME280;41218;55.700;38.270;2023-09-12T23:22:10;100501.22;;;9.37;66.76
55347;BME280;41218;55.700;38.270;2023-09-12T23:27:10;100501.81;;;9.31;66.84
55347;BME280;41218;55.700;38.270;2023-09-12T23:32:12;100499.28;;;9.38;66.63
55347;BME280;41218;55.700;38.270;2023-09-12T23:37:14;100495.81;;;9.29;66.74
55347;BME280;41218;55.700;38.270;2023-09-12T23:42:14;100486.72;;;9.16;66.79
55347;BME280;41218;55.700;38.270;2023-09-12T23:47:15;100499.84;;;9.19;66.78
55347;BME280;41218;55.700;38.270;2023-09-12T23:52:16;100503.25;;;9.16;66.92
55347;BME280;41218;55.700;38.270;2023-09-12T23:57:17;100490.25;;;9.04;67.03
